Usti Nad Orlici, Czech Republic
Current Conditions -  °F | °C
As of 3:00 PM on Friday 24 Oct 2014 (Local Time) from LKPD Reporting Station
Overcast Overcast  
Wind Chill: 46°   Ceiling: 4400
Heat Index: 48°   Visibility: 6mi
Dew Point: 41°   Wind: 6mph
Humidity: 76%   Direction: 50°NE
Pressure: 30.21"   Gusts: NA
Location:  49.97°N, 16.4°E
Report Text: LKPD 241300Z 05005KT 360V090 9999 FEW022 OVC044 09/05 Q1023 NOSIG
Loading
Personal Weather Stations






























Interactive Weather Map
Tropical Storm Tracking
New forecast layout! Learn more

10-Day Weather Forecast

Advertisements
Track Severe Weather on mobile